sensor_id;sensor_type;location;lat;lon;timestamp;P1;durP1;ratioP1;P2;durP2;ratioP2
3465;SDS011;1747;48.884;9.160;2024-03-22T00:02:19;14.18;;;9.00;;
3465;SDS011;1747;48.884;9.160;2024-03-22T00:04:44;18.00;;;10.50;;
3465;SDS011;1747;48.884;9.160;2024-03-22T00:07:11;17.40;;;10.27;;
3465;SDS011;1747;48.884;9.160;2024-03-22T00:09:38;15.82;;;10.75;;
3465;SDS011;1747;48.884;9.160;2024-03-22T00:12:06;19.77;;;11.55;;
3465;SDS011;1747;48.884;9.160;2024-03-22T00:14:32;14.65;;;9.50;;
3465;SDS011;1747;48.884;9.160;2024-03-22T00:16:58;13.32;;;9.15;;
3465;SDS011;1747;48.884;9.160;2024-03-22T00:19:24;16.42;;;9.80;;
3465;SDS011;1747;48.884;9.160;2024-03-22T00:21:51;16.60;;;10.27;;
3465;SDS011;1747;48.884;9.160;2024-03-22T00:24:17;15.27;;;9.93;;
3465;SDS011;1747;48.884;9.160;2024-03-22T00:26:45;12.45;;;8.82;;
3465;SDS011;1747;48.884;9.160;2024-03-22T00:29:11;16.50;;;10.65;;
3465;SDS011;1747;48.884;9.160;2024-03-22T00:31:38;17.10;;;10.70;;
3465;SDS011;1747;48.884;9.160;2024-03-22T00:34:04;16.15;;;10.77;;
3465;SDS011;1747;48.884;9.160;2024-03-22T00:36:31;13.50;;;7.60;;
3465;SDS011;1747;48.884;9.160;2024-03-22T00:38:58;13.40;;;8.07;;
3465;SDS011;1747;48.884;9.160;2024-03-22T00:41:25;14.15;;;9.13;;
3465;SDS011;1747;48.884;9.160;2024-03-22T00:43:52;12.32;;;8.00;;
3465;SDS011;1747;48.884;9.160;2024-03-22T00:46:19;14.77;;;10.32;;
3465;SDS011;1747;48.884;9.160;2024-03-22T00:48:45;13.73;;;8.57;;
3465;SDS011;1747;48.884;9.160;2024-03-22T00:51:12;12.10;;;7.75;;
3465;SDS011;1747;48.884;9.160;2024-03-22T00:53:40;10.88;;;7.88;;
3465;SDS011;1747;48.884;9.160;2024-03-22T00:56:07;13.98;;;8.38;;
3465;SDS011;1747;48.884;9.160;2024-03-22T00:58:33;13.48;;;7.68;;
3465;SDS011;1747;48.884;9.160;2024-03-22T01:01:01;10.77;;;7.18;;
3465;SDS011;1747;48.884;9.160;2024-03-22T01:03:27;9.65;;;6.53;;
3465;SDS011;1747;48.884;9.160;2024-03-22T01:05:56;11.77;;;7.13;;
3465;SDS011;1747;48.884;9.160;2024-03-22T01:08:22;13.02;;;7.97;;
3465;SDS011;1747;48.884;9.160;2024-03-22T01:10:49;14.05;;;7.97;;
3465;SDS011;1747;48.884;9.160;2024-03-22T01:13:15;11.55;;;7.43;;
3465;SDS011;1747;48.884;9.160;2024-03-22T01:15:42;10.77;;;7.15;;
3465;SDS011;1747;48.884;9.160;2024-03-22T01:18:10;14.43;;;7.18;;
3465;SDS011;1747;48.884;9.160;2024-03-22T01:20:37;13.18;;;7.95;;
3465;SDS011;1747;48.884;9.160;2024-03-22T01:23:03;14.63;;;8.52;;
3465;SDS011;1747;48.884;9.160;2024-03-22T01:25:32;17.48;;;10.07;;
3465;SDS011;1747;48.884;9.160;2024-03-22T01:27:58;13.98;;;7.78;;
3465;SDS011;1747;48.884;9.160;2024-03-22T01:30:25;10.07;;;7.07;;
3465;SDS011;1747;48.884;9.160;2024-03-22T01:32:53;14.13;;;7.95;;
3465;SDS011;1747;48.884;9.160;2024-03-22T01:35:24;13.02;;;8.02;;
3465;SDS011;1747;48.884;9.160;2024-03-22T01:37:50;10.73;;;7.45;;
3465;SDS011;1747;48.884;9.160;2024-03-22T01:40:17;9.73;;;6.85;;
3465;SDS011;1747;48.884;9.160;2024-03-22T01:42:43;11.38;;;7.68;;
3465;SDS011;1747;48.884;9.160;2024-03-22T01:45:10;11.15;;;7.53;;
3465;SDS011;1747;48.884;9.160;2024-03-22T01:47:40;9.95;;;6.32;;
3465;SDS011;1747;48.884;9.160;2024-03-22T01:50:08;14.77;;;9.27;;
3465;SDS011;1747;48.884;9.160;2024-03-22T01:52:36;10.75;;;7.13;;
3465;SDS011;1747;48.884;9.160;2024-03-22T01:55:04;11.32;;;7.10;;
3465;SDS011;1747;48.884;9.160;2024-03-22T01:57:32;11.35;;;7.35;;
3465;SDS011;1747;48.884;9.160;2024-03-22T01:59:58;9.10;;;6.50;;
3465;SDS011;1747;48.884;9.160;2024-03-22T02:02:28;12.15;;;6.70;;
3465;SDS011;1747;48.884;9.160;2024-03-22T02:04:55;10.88;;;6.95;;
3465;SDS011;1747;48.884;9.160;2024-03-22T02:07:23;12.98;;;8.63;;
3465;SDS011;1747;48.884;9.160;2024-03-22T02:09:53;12.63;;;8.98;;
3465;SDS011;1747;48.884;9.160;2024-03-22T02:12:20;18.15;;;10.38;;
3465;SDS011;1747;48.884;9.160;2024-03-22T02:14:46;18.95;;;10.00;;
3465;SDS011;1747;48.884;9.160;2024-03-22T02:17:13;16.67;;;9.63;;
3465;SDS011;1747;48.884;9.160;2024-03-22T02:19:39;18.17;;;10.50;;
3465;SDS011;1747;48.884;9.160;2024-03-22T02:22:05;17.00;;;9.95;;
3465;SDS011;1747;48.884;9.160;2024-03-22T02:24:33;17.35;;;8.65;;
3465;SDS011;1747;48.884;9.160;2024-03-22T02:26:59;14.15;;;8.73;;
3465;SDS011;1747;48.884;9.160;2024-03-22T02:29:25;15.10;;;8.63;;
3465;SDS011;1747;48.884;9.160;2024-03-22T02:31:53;15.68;;;9.05;;
3465;SDS011;1747;48.884;9.160;2024-03-22T02:34:19;16.45;;;8.98;;
3465;SDS011;1747;48.884;9.160;2024-03-22T02:36:49;14.80;;;8.43;;
3465;SDS011;1747;48.884;9.160;2024-03-22T02:39:17;15.40;;;9.38;;
3465;SDS011;1747;48.884;9.160;2024-03-22T02:41:48;13.43;;;7.68;;
3465;SDS011;1747;48.884;9.160;2024-03-22T02:44:14;14.32;;;8.90;;
3465;SDS011;1747;48.884;9.160;2024-03-22T02:46:42;15.75;;;8.25;;
3465;SDS011;1747;48.884;9.160;2024-03-22T02:49:08;16.52;;;8.85;;
3465;SDS011;1747;48.884;9.160;2024-03-22T02:51:35;14.15;;;8.48;;
3465;SDS011;1747;48.884;9.160;2024-03-22T02:54:01;12.80;;;8.32;;
3465;SDS011;1747;48.884;9.160;2024-03-22T02:56:29;19.20;;;9.55;;
3465;SDS011;1747;48.884;9.160;2024-03-22T02:58:57;20.48;;;11.32;;
3465;SDS011;1747;48.884;9.160;2024-03-22T03:01:24;18.92;;;10.55;;
3465;SDS011;1747;48.884;9.160;2024-03-22T03:03:50;15.48;;;9.02;;
3465;SDS011;1747;48.884;9.160;2024-03-22T03:06:17;14.85;;;9.60;;
3465;SDS011;1747;48.884;9.160;2024-03-22T03:08:45;13.70;;;8.75;;
3465;SDS011;1747;48.884;9.160;2024-03-22T03:11:13;14.68;;;9.73;;
3465;SDS011;1747;48.884;9.160;2024-03-22T03:13:39;16.10;;;9.75;;
3465;SDS011;1747;48.884;9.160;2024-03-22T03:16:07;16.75;;;10.32;;
3465;SDS011;1747;48.884;9.160;2024-03-22T03:18:37;17.38;;;9.63;;
3465;SDS011;1747;48.884;9.160;2024-03-22T03:21:03;18.05;;;10.93;;
3465;SDS011;1747;48.884;9.160;2024-03-22T03:23:30;20.20;;;12.00;;
3465;SDS011;1747;48.884;9.160;2024-03-22T03:25:56;19.98;;;11.85;;
3465;SDS011;1747;48.884;9.160;2024-03-22T03:28:23;20.77;;;11.82;;
3465;SDS011;1747;48.884;9.160;2024-03-22T03:30:51;20.17;;;10.00;;
3465;SDS011;1747;48.884;9.160;2024-03-22T03:33:19;19.55;;;11.02;;
3465;SDS011;1747;48.884;9.160;2024-03-22T03:35:45;20.15;;;11.75;;
3465;SDS011;1747;48.884;9.160;2024-03-22T03:38:12;19.98;;;12.25;;
3465;SDS011;1747;48.884;9.160;2024-03-22T03:40:38;20.70;;;12.95;;
3465;SDS011;1747;48.884;9.160;2024-03-22T03:43:05;24.83;;;12.65;;
3465;SDS011;1747;48.884;9.160;2024-03-22T03:45:30;18.52;;;11.80;;
3465;SDS011;1747;48.884;9.160;2024-03-22T03:47:57;22.75;;;12.13;;
3465;SDS011;1747;48.884;9.160;2024-03-22T03:50:24;18.15;;;11.45;;
3465;SDS011;1747;48.884;9.160;2024-03-22T03:52:51;21.60;;;11.98;;
3465;SDS011;1747;48.884;9.160;2024-03-22T03:55:17;23.50;;;12.07;;
3465;SDS011;1747;48.884;9.160;2024-03-22T03:57:44;22.23;;;11.98;;
3465;SDS011;1747;48.884;9.160;2024-03-22T04:00:10;21.25;;;11.57;;
3465;SDS011;1747;48.884;9.160;2024-03-22T04:02:37;21.13;;;11.38;;
3465;SDS011;1747;48.884;9.160;2024-03-22T04:05:03;17.60;;;11.82;;
3465;SDS011;1747;48.884;9.160;2024-03-22T04:07:31;17.90;;;10.68;;
3465;SDS011;1747;48.884;9.160;2024-03-22T04:09:57;21.63;;;10.93;;
3465;SDS011;1747;48.884;9.160;2024-03-22T04:12:25;18.40;;;10.60;;
3465;SDS011;1747;48.884;9.160;2024-03-22T04:14:51;16.42;;;10.43;;
3465;SDS011;1747;48.884;9.160;2024-03-22T04:17:17;18.83;;;11.45;;
3465;SDS011;1747;48.884;9.160;2024-03-22T04:19:43;16.92;;;10.55;;
3465;SDS011;1747;48.884;9.160;2024-03-22T04:22:10;20.27;;;11.90;;
3465;SDS011;1747;48.884;9.160;2024-03-22T04:24:37;18.17;;;11.80;;
3465;SDS011;1747;48.884;9.160;2024-03-22T04:27:04;20.08;;;11.38;;
3465;SDS011;1747;48.884;9.160;2024-03-22T04:29:30;19.63;;;11.32;;
3465;SDS011;1747;48.884;9.160;2024-03-22T04:31:57;16.52;;;10.65;;
3465;SDS011;1747;48.884;9.160;2024-03-22T04:34:22;16.23;;;10.73;;
3465;SDS011;1747;48.884;9.160;2024-03-22T04:36:50;18.55;;;11.18;;
3465;SDS011;1747;48.884;9.160;2024-03-22T04:39:17;17.45;;;10.55;;
3465;SDS011;1747;48.884;9.160;2024-03-22T04:41:46;14.75;;;10.18;;
3465;SDS011;1747;48.884;9.160;2024-03-22T04:44:13;15.48;;;10.07;;
3465;SDS011;1747;48.884;9.160;2024-03-22T04:46:39;14.68;;;9.40;;
3465;SDS011;1747;48.884;9.160;2024-03-22T04:49:05;15.02;;;10.15;;
3465;SDS011;1747;48.884;9.160;2024-03-22T04:51:32;13.82;;;9.30;;
3465;SDS011;1747;48.884;9.160;2024-03-22T04:53:59;13.88;;;9.07;;
3465;SDS011;1747;48.884;9.160;2024-03-22T04:56:25;14.88;;;9.10;;
3465;SDS011;1747;48.884;9.160;2024-03-22T04:58:53;14.23;;;8.77;;
3465;SDS011;1747;48.884;9.160;2024-03-22T05:01:20;15.73;;;9.93;;
3465;SDS011;1747;48.884;9.160;2024-03-22T05:03:48;14.68;;;9.35;;
3465;SDS011;1747;48.884;9.160;2024-03-22T05:06:14;14.30;;;9.80;;
3465;SDS011;1747;48.884;9.160;2024-03-22T05:08:41;14.40;;;9.10;;
3465;SDS011;1747;48.884;9.160;2024-03-22T05:11:07;15.65;;;10.38;;
3465;SDS011;1747;48.884;9.160;2024-03-22T05:13:33;17.15;;;9.15;;
3465;SDS011;1747;48.884;9.160;2024-03-22T05:16:01;13.45;;;9.30;;
3465;SDS011;1747;48.884;9.160;2024-03-22T05:18:27;15.93;;;8.95;;
3465;SDS011;1747;48.884;9.160;2024-03-22T05:20:54;14.00;;;9.55;;
3465;SDS011;1747;48.884;9.160;2024-03-22T05:23:20;15.02;;;9.88;;
3465;SDS011;1747;48.884;9.160;2024-03-22T05:25:46;17.30;;;10.93;;
3465;SDS011;1747;48.884;9.160;2024-03-22T05:28:13;14.43;;;9.43;;
3465;SDS011;1747;48.884;9.160;2024-03-22T05:30:39;12.85;;;8.65;;
3465;SDS011;1747;48.884;9.160;2024-03-22T05:33:07;16.45;;;9.02;;
3465;SDS011;1747;48.884;9.160;2024-03-22T05:35:33;10.23;;;8.27;;
3465;SDS011;1747;48.884;9.160;2024-03-22T05:37:59;15.80;;;9.32;;
3465;SDS011;1747;48.884;9.160;2024-03-22T05:40:25;13.52;;;9.63;;
3465;SDS011;1747;48.884;9.160;2024-03-22T05:42:52;15.98;;;9.75;;
3465;SDS011;1747;48.884;9.160;2024-03-22T05:45:18;14.15;;;9.65;;
3465;SDS011;1747;48.884;9.160;2024-03-22T05:47:45;15.60;;;9.40;;
3465;SDS011;1747;48.884;9.160;2024-03-22T05:50:13;14.60;;;9.52;;
3465;SDS011;1747;48.884;9.160;2024-03-22T05:52:40;17.80;;;10.45;;
3465;SDS011;1747;48.884;9.160;2024-03-22T05:55:06;14.43;;;9.90;;
3465;SDS011;1747;48.884;9.160;2024-03-22T05:57:33;16.27;;;9.98;;
3465;SDS011;1747;48.884;9.160;2024-03-22T05:59:58;15.45;;;8.90;;
3465;SDS011;1747;48.884;9.160;2024-03-22T06:02:25;19.10;;;9.68;;
3465;SDS011;1747;48.884;9.160;2024-03-22T06:04:51;16.17;;;10.50;;
3465;SDS011;1747;48.884;9.160;2024-03-22T06:07:19;16.55;;;9.30;;
3465;SDS011;1747;48.884;9.160;2024-03-22T06:09:45;18.40;;;9.95;;
3465;SDS011;1747;48.884;9.160;2024-03-22T06:12:12;17.13;;;9.98;;
3465;SDS011;1747;48.884;9.160;2024-03-22T06:14:38;14.32;;;9.48;;
3465;SDS011;1747;48.884;9.160;2024-03-22T06:17:06;16.27;;;9.65;;
3465;SDS011;1747;48.884;9.160;2024-03-22T06:19:32;14.10;;;9.43;;
3465;SDS011;1747;48.884;9.160;2024-03-22T06:21:58;16.88;;;10.55;;
3465;SDS011;1747;48.884;9.160;2024-03-22T06:24:26;17.88;;;10.65;;
3465;SDS011;1747;48.884;9.160;2024-03-22T06:26:53;18.95;;;10.30;;
3465;SDS011;1747;48.884;9.160;2024-03-22T06:29:18;16.30;;;10.50;;
3465;SDS011;1747;48.884;9.160;2024-03-22T06:31:45;14.90;;;9.77;;
3465;SDS011;1747;48.884;9.160;2024-03-22T06:34:11;13.77;;;9.57;;
3465;SDS011;1747;48.884;9.160;2024-03-22T06:36:38;15.77;;;9.98;;
3465;SDS011;1747;48.884;9.160;2024-03-22T06:39:04;17.75;;;10.48;;
3465;SDS011;1747;48.884;9.160;2024-03-22T06:41:33;19.20;;;11.77;;
3465;SDS011;1747;48.884;9.160;2024-03-22T06:43:59;17.00;;;11.23;;
3465;SDS011;1747;48.884;9.160;2024-03-22T06:46:26;21.60;;;10.63;;
3465;SDS011;1747;48.884;9.160;2024-03-22T06:48:52;20.10;;;11.15;;
3465;SDS011;1747;48.884;9.160;2024-03-22T06:51:19;17.10;;;10.77;;
3465;SDS011;1747;48.884;9.160;2024-03-22T06:53:45;19.45;;;11.20;;
3465;SDS011;1747;48.884;9.160;2024-03-22T06:56:12;18.33;;;11.65;;
3465;SDS011;1747;48.884;9.160;2024-03-22T06:58:40;22.95;;;11.68;;
3465;SDS011;1747;48.884;9.160;2024-03-22T07:01:06;20.13;;;10.90;;
3465;SDS011;1747;48.884;9.160;2024-03-22T07:03:32;18.52;;;11.38;;
3465;SDS011;1747;48.884;9.160;2024-03-22T07:05:59;21.38;;;13.10;;
3465;SDS011;1747;48.884;9.160;2024-03-22T07:08:25;22.20;;;11.50;;
3465;SDS011;1747;48.884;9.160;2024-03-22T07:10:53;19.00;;;12.30;;
3465;SDS011;1747;48.884;9.160;2024-03-22T07:13:20;19.35;;;12.18;;
3465;SDS011;1747;48.884;9.160;2024-03-22T07:15:48;25.77;;;13.20;;
3465;SDS011;1747;48.884;9.160;2024-03-22T07:18:14;16.95;;;11.32;;
3465;SDS011;1747;48.884;9.160;2024-03-22T07:20:41;19.75;;;12.30;;
3465;SDS011;1747;48.884;9.160;2024-03-22T07:23:08;19.17;;;11.32;;
3465;SDS011;1747;48.884;9.160;2024-03-22T07:25:36;18.00;;;11.48;;
3465;SDS011;1747;48.884;9.160;2024-03-22T07:28:03;20.92;;;11.98;;
3465;SDS011;1747;48.884;9.160;2024-03-22T07:30:30;18.17;;;11.05;;
3465;SDS011;1747;48.884;9.160;2024-03-22T07:32:58;19.80;;;11.45;;
3465;SDS011;1747;48.884;9.160;2024-03-22T07:35:23;19.20;;;11.02;;
3465;SDS011;1747;48.884;9.160;2024-03-22T07:37:50;20.20;;;11.00;;
3465;SDS011;1747;48.884;9.160;2024-03-22T07:40:16;16.85;;;11.15;;
3465;SDS011;1747;48.884;9.160;2024-03-22T07:42:43;19.27;;;12.10;;
3465;SDS011;1747;48.884;9.160;2024-03-22T07:45:09;15.60;;;11.02;;
3465;SDS011;1747;48.884;9.160;2024-03-22T07:47:35;17.20;;;11.27;;
3465;SDS011;1747;48.884;9.160;2024-03-22T07:50:04;21.85;;;12.55;;
3465;SDS011;1747;48.884;9.160;2024-03-22T07:52:32;18.30;;;11.43;;
3465;SDS011;1747;48.884;9.160;2024-03-22T07:54:57;16.38;;;10.88;;
3465;SDS011;1747;48.884;9.160;2024-03-22T07:57:27;16.30;;;10.75;;
3465;SDS011;1747;48.884;9.160;2024-03-22T07:59:53;16.95;;;11.05;;
3465;SDS011;1747;48.884;9.160;2024-03-22T08:02:19;16.80;;;10.80;;
3465;SDS011;1747;48.884;9.160;2024-03-22T08:04:45;19.83;;;11.82;;
3465;SDS011;1747;48.884;9.160;2024-03-22T08:07:13;20.80;;;12.13;;
3465;SDS011;1747;48.884;9.160;2024-03-22T08:09:39;17.10;;;10.25;;
3465;SDS011;1747;48.884;9.160;2024-03-22T08:12:06;18.17;;;11.93;;
3465;SDS011;1747;48.884;9.160;2024-03-22T08:14:32;15.88;;;10.98;;
3465;SDS011;1747;48.884;9.160;2024-03-22T08:16:59;18.67;;;11.57;;
3465;SDS011;1747;48.884;9.160;2024-03-22T08:19:25;20.73;;;11.25;;
3465;SDS011;1747;48.884;9.160;2024-03-22T08:21:53;13.98;;;10.35;;
3465;SDS011;1747;48.884;9.160;2024-03-22T08:24:20;18.23;;;9.68;;
3465;SDS011;1747;48.884;9.160;2024-03-22T08:26:47;20.42;;;11.93;;
3465;SDS011;1747;48.884;9.160;2024-03-22T08:29:13;19.08;;;11.43;;
3465;SDS011;1747;48.884;9.160;2024-03-22T08:31:40;17.23;;;10.60;;
3465;SDS011;1747;48.884;9.160;2024-03-22T08:34:06;16.08;;;10.10;;
3465;SDS011;1747;48.884;9.160;2024-03-22T08:36:33;16.83;;;10.18;;
3465;SDS011;1747;48.884;9.160;2024-03-22T08:38:59;16.00;;;10.55;;
3465;SDS011;1747;48.884;9.160;2024-03-22T08:41:27;15.35;;;9.93;;
3465;SDS011;1747;48.884;9.160;2024-03-22T08:43:53;16.85;;;9.65;;
3465;SDS011;1747;48.884;9.160;2024-03-22T08:46:20;16.35;;;10.48;;
3465;SDS011;1747;48.884;9.160;2024-03-22T08:48:46;15.27;;;9.55;;
3465;SDS011;1747;48.884;9.160;2024-03-22T08:51:13;15.82;;;9.23;;
3465;SDS011;1747;48.884;9.160;2024-03-22T08:53:41;15.32;;;9.90;;
3465;SDS011;1747;48.884;9.160;2024-03-22T08:56:08;20.15;;;9.90;;
3465;SDS011;1747;48.884;9.160;2024-03-22T08:58:35;14.20;;;9.38;;
3465;SDS011;1747;48.884;9.160;2024-03-22T09:01:02;13.75;;;9.25;;
3465;SDS011;1747;48.884;9.160;2024-03-22T09:03:28;15.57;;;9.77;;
3465;SDS011;1747;48.884;9.160;2024-03-22T09:05:55;14.77;;;9.07;;
3465;SDS011;1747;48.884;9.160;2024-03-22T09:08:21;18.20;;;9.77;;
3465;SDS011;1747;48.884;9.160;2024-03-22T09:10:48;17.08;;;8.70;;
3465;SDS011;1747;48.884;9.160;2024-03-22T09:13:14;14.35;;;8.82;;
3465;SDS011;1747;48.884;9.160;2024-03-22T09:15:42;13.38;;;8.63;;
3465;SDS011;1747;48.884;9.160;2024-03-22T09:18:09;12.50;;;8.05;;
3465;SDS011;1747;48.884;9.160;2024-03-22T09:20:35;16.15;;;7.80;;
3465;SDS011;1747;48.884;9.160;2024-03-22T09:23:01;11.98;;;8.38;;
3465;SDS011;1747;48.884;9.160;2024-03-22T09:25:28;14.32;;;8.45;;
3465;SDS011;1747;48.884;9.160;2024-03-22T09:27:55;13.35;;;8.45;;
3465;SDS011;1747;48.884;9.160;2024-03-22T09:30:21;9.35;;;6.90;;
3465;SDS011;1747;48.884;9.160;2024-03-22T09:32:49;8.10;;;6.50;;
3465;SDS011;1747;48.884;9.160;2024-03-22T09:35:16;12.75;;;6.88;;
3465;SDS011;1747;48.884;9.160;2024-03-22T09:37:43;10.90;;;6.78;;
3465;SDS011;1747;48.884;9.160;2024-03-22T09:40:09;9.52;;;6.57;;
3465;SDS011;1747;48.884;9.160;2024-03-22T09:42:37;9.55;;;6.43;;
3465;SDS011;1747;48.884;9.160;2024-03-22T09:45:04;8.85;;;5.90;;
3465;SDS011;1747;48.884;9.160;2024-03-22T09:47:35;10.73;;;6.25;;
3465;SDS011;1747;48.884;9.160;2024-03-22T09:50:03;9.75;;;6.35;;
3465;SDS011;1747;48.884;9.160;2024-03-22T09:52:33;8.65;;;5.55;;
3465;SDS011;1747;48.884;9.160;2024-03-22T09:55:00;9.55;;;5.65;;
3465;SDS011;1747;48.884;9.160;2024-03-22T09:57:29;13.50;;;5.95;;
3465;SDS011;1747;48.884;9.160;2024-03-22T09:59:56;7.95;;;6.13;;
3465;SDS011;1747;48.884;9.160;2024-03-22T10:02:23;11.65;;;6.20;;
3465;SDS011;1747;48.884;9.160;2024-03-22T10:04:51;12.15;;;6.35;;
3465;SDS011;1747;48.884;9.160;2024-03-22T10:07:19;11.55;;;6.15;;
3465;SDS011;1747;48.884;9.160;2024-03-22T10:09:45;9.35;;;6.32;;
3465;SDS011;1747;48.884;9.160;2024-03-22T10:12:12;9.23;;;6.35;;
3465;SDS011;1747;48.884;9.160;2024-03-22T10:14:38;10.82;;;6.30;;
3465;SDS011;1747;48.884;9.160;2024-03-22T10:17:07;10.70;;;6.00;;
3465;SDS011;1747;48.884;9.160;2024-03-22T10:19:33;12.48;;;6.55;;
3465;SDS011;1747;48.884;9.160;2024-03-22T10:21:59;8.00;;;5.22;;
3465;SDS011;1747;48.884;9.160;2024-03-22T10:24:27;8.18;;;5.35;;
3465;SDS011;1747;48.884;9.160;2024-03-22T10:26:54;11.77;;;6.00;;
3465;SDS011;1747;48.884;9.160;2024-03-22T10:29:20;7.32;;;5.43;;
3465;SDS011;1747;48.884;9.160;2024-03-22T10:31:47;8.65;;;5.63;;
3465;SDS011;1747;48.884;9.160;2024-03-22T10:34:13;9.43;;;5.95;;
3465;SDS011;1747;48.884;9.160;2024-03-22T10:36:41;8.88;;;5.97;;
3465;SDS011;1747;48.884;9.160;2024-03-22T10:39:07;8.20;;;5.50;;
3465;SDS011;1747;48.884;9.160;2024-03-22T10:41:37;9.85;;;5.30;;
3465;SDS011;1747;48.884;9.160;2024-03-22T10:44:03;6.03;;;4.75;;
3465;SDS011;1747;48.884;9.160;2024-03-22T10:46:30;9.27;;;5.97;;
3465;SDS011;1747;48.884;9.160;2024-03-22T10:48:56;7.93;;;5.70;;
3465;SDS011;1747;48.884;9.160;2024-03-22T10:51:24;12.60;;;5.60;;
3465;SDS011;1747;48.884;9.160;2024-03-22T10:53:51;9.77;;;6.03;;
3465;SDS011;1747;48.884;9.160;2024-03-22T10:56:20;7.82;;;5.68;;
3465;SDS011;1747;48.884;9.160;2024-03-22T10:58:49;8.13;;;5.93;;
3465;SDS011;1747;48.884;9.160;2024-03-22T11:01:24;9.88;;;6.00;;
3465;SDS011;1747;48.884;9.160;2024-03-22T11:03:51;10.88;;;5.68;;
3465;SDS011;1747;48.884;9.160;2024-03-22T11:06:18;10.98;;;6.30;;
3465;SDS011;1747;48.884;9.160;2024-03-22T11:08:49;7.90;;;5.30;;
3465;SDS011;1747;48.884;9.160;2024-03-22T11:11:17;9.95;;;6.20;;
3465;SDS011;1747;48.884;9.160;2024-03-22T11:13:46;10.02;;;6.00;;
3465;SDS011;1747;48.884;9.160;2024-03-22T11:16:15;8.23;;;5.50;;
3465;SDS011;1747;48.884;9.160;2024-03-22T11:18:41;7.90;;;5.18;;
3465;SDS011;1747;48.884;9.160;2024-03-22T11:21:08;10.02;;;5.35;;
3465;SDS011;1747;48.884;9.160;2024-03-22T11:23:35;6.80;;;4.97;;
3465;SDS011;1747;48.884;9.160;2024-03-22T11:26:02;7.68;;;5.38;;
3465;SDS011;1747;48.884;9.160;2024-03-22T11:28:28;7.63;;;5.60;;
3465;SDS011;1747;48.884;9.160;2024-03-22T11:30:55;8.40;;;4.72;;
3465;SDS011;1747;48.884;9.160;2024-03-22T11:33:23;8.70;;;5.10;;
3465;SDS011;1747;48.884;9.160;2024-03-22T11:35:52;6.28;;;4.93;;
3465;SDS011;1747;48.884;9.160;2024-03-22T11:38:17;6.07;;;4.50;;
3465;SDS011;1747;48.884;9.160;2024-03-22T11:40:44;6.72;;;4.82;;
3465;SDS011;1747;48.884;9.160;2024-03-22T11:43:11;5.93;;;4.28;;
3465;SDS011;1747;48.884;9.160;2024-03-22T11:45:41;8.77;;;4.75;;
3465;SDS011;1747;48.884;9.160;2024-03-22T11:48:08;8.50;;;4.30;;
3465;SDS011;1747;48.884;9.160;2024-03-22T11:50:37;7.00;;;4.78;;
3465;SDS011;1747;48.884;9.160;2024-03-22T11:53:04;8.85;;;5.72;;
3465;SDS011;1747;48.884;9.160;2024-03-22T11:55:31;7.78;;;5.05;;
3465;SDS011;1747;48.884;9.160;2024-03-22T11:57:57;8.75;;;5.15;;
3465;SDS011;1747;48.884;9.160;2024-03-22T12:00:24;9.57;;;5.00;;
3465;SDS011;1747;48.884;9.160;2024-03-22T12:02:52;5.50;;;4.40;;
3465;SDS011;1747;48.884;9.160;2024-03-22T12:05:20;7.38;;;4.85;;
3465;SDS011;1747;48.884;9.160;2024-03-22T12:07:48;7.97;;;4.28;;
3465;SDS011;1747;48.884;9.160;2024-03-22T12:10:14;5.97;;;4.20;;
3465;SDS011;1747;48.884;9.160;2024-03-22T12:12:40;7.82;;;4.38;;
3465;SDS011;1747;48.884;9.160;2024-03-22T12:15:07;8.98;;;4.65;;
3465;SDS011;1747;48.884;9.160;2024-03-22T12:17:33;6.95;;;4.20;;
3465;SDS011;1747;48.884;9.160;2024-03-22T12:20:01;8.95;;;4.80;;
3465;SDS011;1747;48.884;9.160;2024-03-22T12:22:29;5.53;;;4.30;;
3465;SDS011;1747;48.884;9.160;2024-03-22T12:24:57;8.27;;;3.90;;
3465;SDS011;1747;48.884;9.160;2024-03-22T12:27:24;5.07;;;4.28;;
3465;SDS011;1747;48.884;9.160;2024-03-22T12:29:51;7.55;;;4.07;;
3465;SDS011;1747;48.884;9.160;2024-03-22T12:32:17;5.85;;;3.65;;
3465;SDS011;1747;48.884;9.160;2024-03-22T12:34:44;8.13;;;4.57;;
3465;SDS011;1747;48.884;9.160;2024-03-22T12:37:12;5.70;;;4.07;;
3465;SDS011;1747;48.884;9.160;2024-03-22T12:39:40;6.72;;;4.35;;
3465;SDS011;1747;48.884;9.160;2024-03-22T12:42:07;5.70;;;4.60;;
3465;SDS011;1747;48.884;9.160;2024-03-22T12:44:34;7.95;;;4.78;;
3465;SDS011;1747;48.884;9.160;2024-03-22T12:47:00;6.68;;;3.97;;
3465;SDS011;1747;48.884;9.160;2024-03-22T12:49:28;6.55;;;4.30;;
3465;SDS011;1747;48.884;9.160;2024-03-22T12:51:54;11.00;;;4.03;;
3465;SDS011;1747;48.884;9.160;2024-03-22T12:54:22;6.80;;;4.28;;
3465;SDS011;1747;48.884;9.160;2024-03-22T12:56:48;10.57;;;4.50;;
3465;SDS011;1747;48.884;9.160;2024-03-22T12:59:16;8.10;;;3.67;;
3465;SDS011;1747;48.884;9.160;2024-03-22T13:01:42;5.35;;;4.05;;
3465;SDS011;1747;48.884;9.160;2024-03-22T13:04:09;7.13;;;4.20;;
3465;SDS011;1747;48.884;9.160;2024-03-22T13:06:34;7.40;;;4.20;;
3465;SDS011;1747;48.884;9.160;2024-03-22T13:09:01;6.18;;;3.90;;
3465;SDS011;1747;48.884;9.160;2024-03-22T13:11:29;5.55;;;3.33;;
3465;SDS011;1747;48.884;9.160;2024-03-22T13:13:56;5.65;;;3.55;;
3465;SDS011;1747;48.884;9.160;2024-03-22T13:16:23;6.05;;;4.22;;
3465;SDS011;1747;48.884;9.160;2024-03-22T13:18:50;6.00;;;3.78;;
3465;SDS011;1747;48.884;9.160;2024-03-22T13:21:19;5.53;;;4.07;;
3465;SDS011;1747;48.884;9.160;2024-03-22T13:23:46;4.75;;;3.88;;
3465;SDS011;1747;48.884;9.160;2024-03-22T13:26:11;8.88;;;3.63;;
3465;SDS011;1747;48.884;9.160;2024-03-22T13:28:38;4.80;;;3.67;;
3465;SDS011;1747;48.884;9.160;2024-03-22T13:31:09;6.32;;;3.60;;
3465;SDS011;1747;48.884;9.160;2024-03-22T13:33:37;4.05;;;3.25;;
3465;SDS011;1747;48.884;9.160;2024-03-22T13:36:03;5.95;;;3.20;;
3465;SDS011;1747;48.884;9.160;2024-03-22T13:38:30;6.13;;;3.50;;
3465;SDS011;1747;48.884;9.160;2024-03-22T13:40:57;8.23;;;3.50;;
3465;SDS011;1747;48.884;9.160;2024-03-22T13:43:25;6.68;;;3.47;;
3465;SDS011;1747;48.884;9.160;2024-03-22T13:45:52;11.07;;;3.80;;
3465;SDS011;1747;48.884;9.160;2024-03-22T13:48:20;5.35;;;3.30;;
3465;SDS011;1747;48.884;9.160;2024-03-22T13:50:52;6.57;;;2.85;;
3465;SDS011;1747;48.884;9.160;2024-03-22T13:53:22;5.00;;;3.47;;
3465;SDS011;1747;48.884;9.160;2024-03-22T13:55:48;6.82;;;3.30;;
3465;SDS011;1747;48.884;9.160;2024-03-22T13:58:15;4.55;;;2.83;;
3465;SDS011;1747;48.884;9.160;2024-03-22T14:00:41;3.53;;;2.40;;
3465;SDS011;1747;48.884;9.160;2024-03-22T14:03:07;3.83;;;2.90;;
3465;SDS011;1747;48.884;9.160;2024-03-22T14:05:33;4.60;;;2.72;;
3465;SDS011;1747;48.884;9.160;2024-03-22T14:08:02;3.63;;;2.70;;
3465;SDS011;1747;48.884;9.160;2024-03-22T14:10:28;3.67;;;2.35;;
3465;SDS011;1747;48.884;9.160;2024-03-22T14:12:56;2.17;;;1.92;;
3465;SDS011;1747;48.884;9.160;2024-03-22T14:15:23;2.50;;;2.28;;
3465;SDS011;1747;48.884;9.160;2024-03-22T14:17:50;5.57;;;1.73;;
3465;SDS011;1747;48.884;9.160;2024-03-22T14:20:17;4.30;;;1.42;;
3465;SDS011;1747;48.884;9.160;2024-03-22T14:22:43;2.85;;;1.65;;
3465;SDS011;1747;48.884;9.160;2024-03-22T14:25:12;2.65;;;1.33;;
3465;SDS011;1747;48.884;9.160;2024-03-22T14:27:38;3.67;;;1.50;;
3465;SDS011;1747;48.884;9.160;2024-03-22T14:30:04;5.10;;;1.55;;
3465;SDS011;1747;48.884;9.160;2024-03-22T14:32:33;3.67;;;1.73;;
3465;SDS011;1747;48.884;9.160;2024-03-22T14:34:59;1.95;;;1.40;;
3465;SDS011;1747;48.884;9.160;2024-03-22T14:37:26;1.63;;;1.40;;
3465;SDS011;1747;48.884;9.160;2024-03-22T14:39:52;2.78;;;1.20;;
3465;SDS011;1747;48.884;9.160;2024-03-22T14:42:21;4.30;;;1.70;;
3465;SDS011;1747;48.884;9.160;2024-03-22T14:44:47;4.10;;;1.48;;
3465;SDS011;1747;48.884;9.160;2024-03-22T14:47:13;2.63;;;1.77;;
3465;SDS011;1747;48.884;9.160;2024-03-22T14:49:40;3.90;;;1.50;;
3465;SDS011;1747;48.884;9.160;2024-03-22T14:52:07;2.22;;;1.25;;
3465;SDS011;1747;48.884;9.160;2024-03-22T14:54:34;2.72;;;1.45;;
3465;SDS011;1747;48.884;9.160;2024-03-22T14:57:01;3.45;;;1.50;;
3465;SDS011;1747;48.884;9.160;2024-03-22T14:59:29;4.60;;;1.92;;
3465;SDS011;1747;48.884;9.160;2024-03-22T15:01:56;2.92;;;1.50;;